KR-0427 weather

Vervill 2 Apartments Heliports
Busan, Busan Gwang'yeogsi, South Korea

Public forecast

Using degrees Celsius for public forecast. Weather courtesy of forecast.io.

METAR (pilot weather report)

Closest report is Gimhae International Airport, 6.3 nm (11.6 km) WNW. Retrieved 2019/09/22 19:00 UTC (34 minutes ago):

RKPK 221900Z 31007KT 9000 FEW020 BKN040 18/15 Q1006

TAF (pilot weather forecast)

Closest forecast is Gimhae International Airport, 6.3 nm (11.6 km) WNW. Retrieved 2019/09/22 18:00 UTC (2 hours ago):

TAF RKPK 221700Z 2218/2400 02010KT 9999 BKN030 TN18/2220Z TX24/2306Z